createdAt,value
2023-04-24T00:00:25.267Z,11.31
2023-04-24T00:02:57.915Z,11.85
2023-04-24T00:05:47.288Z,11.57
2023-04-24T00:08:14.544Z,11.86
2023-04-24T00:10:45.230Z,11.87
2023-04-24T00:13:24.043Z,11.91
2023-04-24T00:15:58.474Z,11.47
2023-04-24T00:18:40.987Z,11.44
2023-04-24T00:21:15.947Z,11.79
2023-04-24T00:23:46.877Z,11.61
2023-04-24T00:26:15.909Z,11.96
2023-04-24T00:28:44.137Z,11.33
2023-04-24T00:31:15.056Z,11.45
2023-04-24T00:33:45.828Z,11.81
2023-04-24T00:36:14.019Z,11.52
2023-04-24T00:38:43.790Z,11.81
2023-04-24T00:41:13.549Z,11.92
2023-04-24T00:43:41.412Z,11.92
2023-04-24T00:48:50.059Z,11.78
2023-04-24T00:51:22.283Z,11.85
2023-04-24T00:56:34.227Z,11.76
2023-04-24T00:59:02.143Z,11.50
2023-04-24T01:01:32.502Z,11.78
2023-04-24T01:04:00.950Z,11.87
2023-04-24T01:06:37.798Z,11.68
2023-04-24T01:09:06.315Z,11.44
2023-04-24T01:11:33.589Z,11.15
2023-04-24T01:14:03.410Z,11.66
2023-04-24T01:16:30.586Z,11.73
2023-04-24T01:21:41.677Z,11.35
2023-04-24T01:24:13.752Z,11.61
2023-04-24T01:26:41.143Z,11.21
2023-04-24T01:29:08.654Z,11.28
2023-04-24T01:31:37.808Z,11.41
2023-04-24T01:34:13.121Z,10.88
2023-04-24T01:36:41.716Z,11.11
2023-04-24T01:39:14.582Z,11.13
2023-04-24T01:41:41.980Z,11.12
2023-04-24T01:44:09.310Z,11.27
2023-04-24T01:46:38.203Z,11.48
2023-04-24T01:49:06.182Z,11.49
2023-04-24T01:51:33.135Z,11.48
2023-04-24T01:54:00.428Z,11.13
2023-04-24T01:56:31.923Z,11.17
2023-04-24T01:59:01.478Z,11.24
2023-04-24T02:01:36.286Z,11.28
2023-04-24T02:04:03.953Z,10.89
2023-04-24T02:06:33.448Z,11.14
2023-04-24T02:09:04.570Z,11.36
2023-04-24T02:11:32.992Z,11.53
2023-04-24T02:14:04.836Z,11.27
2023-04-24T02:16:34.685Z,11.40
2023-04-24T02:19:02.160Z,11.36
2023-04-24T02:21:32.112Z,11.12
2023-04-24T02:24:02.126Z,11.44
2023-04-24T02:26:34.833Z,11.11
2023-04-24T02:29:03.165Z,11.07
2023-04-24T02:31:30.062Z,11.41
2023-04-24T02:34:02.244Z,10.97
2023-04-24T02:36:36.806Z,11.00
2023-04-24T02:39:06.388Z,11.25
2023-04-24T02:41:35.781Z,11.04
2023-04-24T02:44:03.739Z,10.86
2023-04-24T02:46:38.266Z,11.24
2023-04-24T02:49:06.865Z,11.30
2023-04-24T02:54:16.689Z,11.28
2023-04-24T02:56:48.102Z,11.26
2023-04-24T02:59:24.999Z,11.22
2023-04-24T03:01:52.138Z,11.18
2023-04-24T03:04:21.992Z,10.91
2023-04-24T03:06:54.677Z,10.91
2023-04-24T03:09:23.087Z,10.82
2023-04-24T03:11:50.609Z,10.50
2023-04-24T03:14:18.110Z,10.83
2023-04-24T03:16:45.676Z,10.11
2023-04-24T03:19:12.995Z,10.60
2023-04-24T03:21:44.437Z,10.26
2023-04-24T03:24:18.868Z,10.83
2023-04-24T03:26:46.855Z,10.62
2023-04-24T03:29:16.358Z,10.29
2023-04-24T03:31:45.297Z,10.64
2023-04-24T03:34:12.231Z,10.96
2023-04-24T03:36:39.185Z,10.85
2023-04-24T03:39:11.729Z,10.73
2023-04-24T03:41:40.704Z,10.96
2023-04-24T03:44:28.205Z,10.83
2023-04-24T03:46:55.572Z,10.96
2023-04-24T03:49:23.189Z,10.89
2023-04-24T03:51:52.255Z,11.13
2023-04-24T03:54:24.402Z,11.07
2023-04-24T03:59:36.672Z,11.18
2023-04-24T04:02:04.460Z,11.27
2023-04-24T04:04:36.154Z,11.20
2023-04-24T04:07:12.185Z,10.97
2023-04-24T04:09:39.361Z,11.43
2023-04-24T04:12:06.578Z,11.22
2023-04-24T04:14:35.962Z,11.37
2023-04-24T04:17:03.401Z,11.24
2023-04-24T04:19:41.539Z,11.30
2023-04-24T04:22:10.210Z,11.08
2023-04-24T04:24:39.284Z,10.99
2023-04-24T04:27:13.616Z,10.99
2023-04-24T04:30:06.310Z,10.90
2023-04-24T04:32:44.707Z,10.68
2023-04-24T04:35:12.039Z,10.68
2023-04-24T04:37:42.298Z,10.77
2023-04-24T04:40:15.770Z,10.81
2023-04-24T04:42:59.183Z,10.68
2023-04-24T04:45:37.342Z,10.36
2023-04-24T04:53:42.732Z,10.25
2023-04-24T04:58:58.472Z,10.57
2023-04-24T05:01:29.512Z,10.27
2023-04-24T05:03:57.642Z,10.35
2023-04-24T05:07:33.484Z,10.57
2023-04-24T05:10:06.036Z,10.38
2023-04-24T05:12:33.153Z,10.30
2023-04-24T05:15:09.429Z,10.35
2023-04-24T05:17:46.303Z,10.23
2023-04-24T05:20:31.372Z,10.48
2023-04-24T05:23:13.167Z,10.27
2023-04-24T05:25:56.833Z,10.53
2023-04-24T05:28:24.100Z,10.05
2023-04-24T05:30:59.174Z,9.97
2023-04-24T05:33:29.976Z,10.43
2023-04-24T05:35:58.093Z,10.44
2023-04-24T05:38:27.889Z,9.94
2023-04-24T05:40:58.912Z,10.25
2023-04-24T05:43:31.739Z,10.41
2023-04-24T05:51:55.508Z,10.51
2023-04-24T05:54:22.722Z,10.67
2023-04-24T05:56:55.736Z,10.51
2023-04-24T05:59:30.836Z,10.48
2023-04-24T06:02:11.163Z,10.57
2023-04-24T06:04:56.378Z,10.52
2023-04-24T06:07:27.976Z,10.24
2023-04-24T06:09:59.255Z,10.92
2023-04-24T06:15:35.167Z,10.97
2023-04-24T06:18:10.972Z,11.13
2023-04-24T06:20:45.110Z,11.19
2023-04-24T06:23:44.191Z,10.89
2023-04-24T06:26:34.237Z,11.02
2023-04-24T06:31:51.941Z,11.51
2023-04-24T06:40:42.941Z,11.19
2023-04-24T06:43:38.239Z,11.07
2023-04-24T06:46:14.494Z,10.93
2023-04-24T06:52:03.074Z,11.07
2023-04-24T06:54:34.087Z,11.41
2023-04-24T06:57:08.148Z,10.80
2023-04-24T06:59:41.500Z,11.18
2023-04-24T07:05:14.082Z,11.88
2023-04-24T07:07:59.025Z,12.76
2023-04-24T07:19:02.805Z,12.26
2023-04-24T07:37:43.173Z,12.78
2023-04-24T07:40:23.501Z,12.95
2023-04-24T07:54:26.084Z,11.79
2023-04-24T07:59:43.079Z,12.44
2023-04-24T08:02:20.483Z,12.41
2023-04-24T08:05:01.120Z,11.35
2023-04-24T08:13:13.881Z,12.62
2023-04-24T08:15:53.699Z,12.89
2023-04-24T08:24:22.215Z,14.27
2023-04-24T08:26:58.447Z,13.81
2023-04-24T08:29:29.540Z,13.46
2023-04-24T08:35:20.112Z,14.05
2023-04-24T08:38:54.250Z,13.83
2023-04-24T08:44:21.320Z,14.45
2023-04-24T08:47:04.654Z,14.41
2023-04-24T08:52:18.213Z,12.96
2023-04-24T08:55:07.799Z,12.94
2023-04-24T08:57:52.987Z,12.55
2023-04-24T09:00:35.666Z,12.29
2023-04-24T09:05:58.065Z,12.22
2023-04-24T09:11:43.750Z,12.00
2023-04-24T10:12:00.427Z,12.16
2023-04-24T10:20:20.485Z,12.15
2023-04-24T10:22:57.569Z,11.98
2023-04-24T10:25:48.632Z,11.74
2023-04-24T10:28:26.904Z,11.57
2023-04-24T10:31:05.544Z,11.68
2023-04-24T10:33:39.108Z,11.40
2023-04-24T10:38:54.204Z,10.50
2023-04-24T10:41:32.193Z,10.67
2023-04-24T10:47:04.003Z,10.40
2023-04-24T10:49:50.884Z,10.12
2023-04-24T10:52:20.924Z,10.43
2023-04-24T10:54:51.878Z,10.55
2023-04-24T10:57:37.972Z,10.62
2023-04-24T11:00:24.338Z,10.25
2023-04-24T11:06:28.920Z,10.70
2023-04-24T11:09:17.912Z,11.29
2023-04-24T11:41:36.857Z,13.06
2023-04-24T11:56:43.984Z,13.38
2023-04-24T12:11:41.004Z,11.83
2023-04-24T12:19:56.513Z,10.99
2023-04-24T12:22:31.643Z,10.23
2023-04-24T12:31:01.716Z,9.68
2023-04-24T12:33:30.544Z,9.83
2023-04-24T12:38:52.812Z,10.39
2023-04-24T12:41:25.103Z,10.09
2023-04-24T12:44:02.709Z,10.11
2023-04-24T12:46:33.143Z,10.49
2023-04-24T12:49:28.984Z,10.85
2023-04-24T12:52:03.114Z,11.23
2023-04-24T13:09:52.108Z,11.67
2023-04-24T13:12:41.684Z,11.82
2023-04-24T13:23:47.314Z,12.18
2023-04-24T13:29:27.080Z,12.12
2023-04-24T13:35:22.621Z,11.85
2023-04-24T13:49:29.337Z,11.31
2023-04-24T13:55:18.573Z,11.07
2023-04-24T14:00:50.398Z,11.24
2023-04-24T14:06:13.277Z,11.20
2023-04-24T14:08:44.772Z,11.25
2023-04-24T14:11:20.418Z,12.08
2023-04-24T14:14:01.319Z,12.43
2023-04-24T14:16:31.845Z,12.91
2023-04-24T14:19:01.450Z,13.11
2023-04-24T14:21:32.634Z,12.81
2023-04-24T14:26:44.098Z,13.28
2023-04-24T14:29:17.195Z,13.32
2023-04-24T14:31:48.752Z,13.01
2023-04-24T14:34:23.056Z,13.05
2023-04-24T14:39:36.661Z,13.69
2023-04-24T14:42:14.379Z,13.73
2023-04-24T14:44:53.413Z,13.24
2023-04-24T14:47:24.441Z,12.68
2023-04-24T14:49:52.135Z,12.62
2023-04-24T14:52:32.247Z,12.26
2023-04-24T14:55:12.485Z,12.37
2023-04-24T15:00:57.922Z,12.97
2023-04-24T15:04:06.353Z,13.19
2023-04-24T15:09:26.981Z,12.95
2023-04-24T15:11:55.243Z,13.22
2023-04-24T15:14:23.177Z,13.15
2023-04-24T15:19:56.205Z,12.64
2023-04-24T15:22:28.405Z,12.94
2023-04-24T15:41:57.652Z,13.30
2023-04-24T15:44:32.364Z,13.19
2023-04-24T15:47:06.953Z,12.91
2023-04-24T15:49:36.050Z,12.77
2023-04-24T15:54:55.203Z,12.99
2023-04-24T15:57:24.927Z,12.95
2023-04-24T16:02:43.716Z,13.04
2023-04-24T16:07:56.837Z,13.04
2023-04-24T16:16:00.363Z,12.76
2023-04-24T16:18:33.628Z,13.16
2023-04-24T16:21:21.042Z,12.57
2023-04-24T16:23:52.521Z,12.56
2023-04-24T16:32:19.637Z,12.81
2023-04-24T16:37:51.101Z,12.95
2023-04-24T16:40:27.311Z,12.67
2023-04-24T16:43:08.053Z,12.86
2023-04-24T16:45:39.925Z,13.17
2023-04-24T16:48:20.144Z,12.91
2023-04-24T16:50:48.348Z,12.91
2023-04-24T16:53:29.215Z,12.86
2023-04-24T16:55:58.743Z,12.69
2023-04-24T17:01:17.021Z,12.85
2023-04-24T17:06:45.518Z,13.04
2023-04-24T17:09:25.645Z,12.98
2023-04-24T17:12:04.501Z,13.24
2023-04-24T17:14:39.707Z,13.31
2023-04-24T17:17:20.981Z,12.84
2023-04-24T17:22:39.510Z,12.96
2023-04-24T17:25:30.673Z,12.92
2023-04-24T17:28:07.031Z,12.57
2023-04-24T17:36:44.702Z,12.78
2023-04-24T19:36:52.736Z,8.78
2023-04-24T19:47:45.311Z,8.63
2023-04-24T19:50:44.990Z,8.57
2023-04-24T19:53:37.461Z,8.39
2023-04-24T20:08:15.339Z,8.78
2023-04-24T20:11:26.537Z,8.32
2023-04-24T20:40:00.412Z,8.93
2023-04-24T20:42:39.150Z,8.28
2023-04-24T20:45:38.803Z,8.52
2023-04-24T20:51:27.116Z,8.83
2023-04-24T20:53:55.637Z,8.49
2023-04-24T21:04:46.652Z,8.37
2023-04-24T21:10:08.088Z,8.40
2023-04-24T21:12:36.607Z,8.64
2023-04-24T21:15:24.095Z,8.61
2023-04-24T21:21:46.300Z,9.09
2023-04-24T21:24:13.778Z,9.11
2023-04-24T21:29:22.303Z,8.42
2023-04-24T21:31:52.242Z,9.10
2023-04-24T21:34:30.829Z,9.12
2023-04-24T21:37:08.380Z,8.99
2023-04-24T21:39:53.357Z,8.79
2023-04-24T21:42:23.868Z,8.64
2023-04-24T21:44:57.779Z,8.68
2023-04-24T21:50:19.215Z,8.91
2023-04-24T21:52:51.338Z,8.63
2023-04-24T21:55:31.447Z,8.72
2023-04-24T21:58:09.024Z,8.74
2023-04-24T22:00:38.615Z,8.91
2023-04-24T22:03:20.988Z,9.34
2023-04-24T22:05:51.433Z,9.18
2023-04-24T22:08:20.429Z,8.77
2023-04-24T22:10:57.972Z,9.12
2023-04-24T22:13:28.197Z,8.96
2023-04-24T22:15:56.875Z,8.54
2023-04-24T22:18:53.981Z,8.66
2023-04-24T22:21:25.096Z,8.33
2023-04-24T22:23:55.506Z,8.55
2023-04-24T22:29:13.380Z,8.68
2023-04-24T22:31:49.479Z,8.63
2023-04-24T22:37:13.678Z,8.10
2023-04-24T22:39:40.448Z,8.13
2023-04-24T22:42:07.209Z,8.41
2023-04-24T22:44:34.679Z,7.80
2023-04-24T22:47:10.230Z,8.34
2023-04-24T22:49:48.546Z,8.44
2023-04-24T22:52:20.561Z,8.42
2023-04-24T22:55:01.032Z,7.86
2023-04-24T22:57:37.699Z,7.79
2023-04-24T23:00:12.405Z,8.18
2023-04-24T23:02:52.905Z,8.32
2023-04-24T23:05:26.597Z,8.31
2023-04-24T23:07:54.632Z,8.32
2023-04-24T23:10:39.245Z,7.59
2023-04-24T23:13:09.868Z,8.22
2023-04-24T23:15:39.813Z,8.55
2023-04-24T23:18:12.940Z,7.97
2023-04-24T23:20:48.057Z,7.98
2023-04-24T23:23:22.857Z,8.36
2023-04-24T23:25:55.003Z,8.39
2023-04-24T23:31:14.557Z,8.44
2023-04-24T23:34:08.702Z,7.97
2023-04-24T23:42:24.521Z,7.55
2023-04-24T23:45:00.570Z,7.89
2023-04-24T23:50:12.872Z,7.83
2023-04-24T23:52:46.583Z,8.16
2023-04-24T23:58:05.843Z,8.26
